Berta — V2BQ6 — position and weather

sailwx.info

Track history (hours):
 
Tides and Currents Weather Stations Pressure Air Temp Water Temp Dewpoint Dewpoint Depression Visibility Wind Speed Wind Dir Waves Ship Positions

Berta

Last reported at 2014-Oct-22 22:33 UTC. Time now 2014-Oct-22 23:07 UTC.
Position N 54°20' E 007°28'.

Length 107 m; draft 6.7 m.

Type: Cargo ship. MMSI: 304586000.

Date/timePositionNaut miles runAvg speedWind from/ knotsBaromVisibWave heightAir tempDewpointWater temp
2014-Oct-22 22:33N 54°20' E 007°28'1211.8
2014-Oct-22 21:33N 54°10' E 007°38'1111.4
2014-Oct-22 20:33N 54°05' E 007°55'1511.2
2014-Oct-22 19:12N 53°60' E 008°20'813.1
2014-Oct-22 18:34N 53°58' E 008°34'1414.1
2014-Oct-22 17:34N 53°51' E 008°54'1813.6
2014-Oct-22 16:13N 53°46' E 009°24'914.3
2014-Oct-22 15:33N 53°38' E 009°32'1212.2
2014-Oct-22 14:33N 53°33' E 009°51'4 3.9
2014-Oct-22 13:33N 53°31' E 009°56'0 0.0
2014-Oct-22 12:28N 53°31' E 009°56'0 0.0
2014-Oct-22 11:28N 53°31' E 009°56'0 0.0
2014-Oct-22 10:31N 53°31' E 009°56'0 0.0
2014-Oct-22 09:28N 53°31' E 009°56'0 0.0
2014-Oct-22 08:31N 53°31' E 009°56'0 0.0
2014-Oct-22 07:31N 53°31' E 009°56'0 0.0
2014-Oct-22 06:28N 53°31' E 009°56'0 0.0
2014-Oct-22 05:28N 53°31' E 009°56'1 0.9
2014-Oct-22 04:33N 53°31' E 009°56'1 1.5
2014-Oct-22 03:33N 53°32' E 009°54'0 0.0
2014-Oct-22 02:33N 53°32' E 009°54'0 0.0
2014-Oct-22 01:33N 53°32' E 009°54'0 0.0
2014-Oct-22 00:33N 53°32' E 009°54'0 0.0
2014-Oct-21 23:33N 53°32' E 009°54'0 0.0
2014-Oct-21 22:33N 53°32' E 009°54'0 0.0
2014-Oct-21 21:33N 53°32' E 009°54'0 0.0
2014-Oct-21 20:33N 53°32' E 009°54'0 0.0
2014-Oct-21 19:33N 53°32' E 009°54'0 0.2
2014-Oct-21 18:34N 53°32' E 009°55'2 2.3
2014-Oct-21 17:33N 53°31' E 009°58'0 0.0
2014-Oct-21 16:33N 53°31' E 009°58'0 0.0
2014-Oct-21 15:33N 53°31' E 009°58'2 2.1
2014-Oct-21 14:33N 53°32' E 009°55'9 8.9
2014-Oct-21 13:33N 53°34' E 009°40'1111.1
2014-Oct-21 12:33N 53°43' E 009°29'1313.2
2014-Oct-21 11:33N 53°53' E 009°14'1515.1
2014-Oct-21 10:33N 53°50' E 008°49'1414.0
2014-Oct-21 09:33N 53°58' E 008°29'1514.6
2014-Oct-21 08:34N 53°59' E 008°05'1313.0
2014-Oct-21 07:33N 54°06' E 007°46'1212.0
2014-Oct-21 06:33N 54°14' E 007°30'1212.4
2014-Oct-21 05:33N 54°26' E 007°24'1312.7
2014-Oct-21 04:33N 54°38' E 007°18'1212.3
2014-Oct-21 03:33N 54°50' E 007°12'1212.3
2014-Oct-21 02:33N 55°01' E 007°06'1212.0
2014-Oct-21 01:33N 55°13' E 006°60'1211.9
2014-Oct-21 00:33N 55°24' E 006°54'1212.3
2014-Oct-20 23:32N 55°36' E 006°48'  
2014-Oct-15 21:12N 58°10' E 005°00'913.7
2014-Oct-15 20:33N 58°02' E 005°04'16513.7
2014-Oct-15 08:33N 55°28' E 006°50'1514.5
2014-Oct-15 07:33N 55°14' E 006°58'1514.5
2014-Oct-15 06:33N 54°60' E 007°05'1515.0
2014-Oct-15 05:33N 54°46' E 007°13'1515.4
2014-Oct-15 04:33N 54°31' E 007°21'1515.3
2014-Oct-15 03:33N 54°17' E 007°29'1414.0
2014-Oct-15 02:33N 54°07' E 007°47'1414.0
2014-Oct-15 01:33N 54°01' E 008°09'1313.0
2014-Oct-15 00:33N 53°58' E 008°30'1313.0
2014-Oct-14 23:33N 53°51' E 008°48'1616.1
2014-Oct-14 22:33N 53°53' E 009°15'1616.0
2014-Oct-14 21:33N 53°40' E 009°31'1312.7
2014-Oct-14 20:33N 53°33' E 009°49'5 4.5
2014-Oct-14 19:29N 53°31' E 009°56'0 0.0
2014-Oct-14 18:32N 53°31' E 009°56'0 0.0
2014-Oct-14 17:32N 53°31' E 009°56'0 0.0
2014-Oct-14 16:32N 53°31' E 009°56'0 0.0
2014-Oct-14 15:29N 53°31' E 009°56'0 0.0
2014-Oct-14 14:29N 53°31' E 009°56'0 0.0
2014-Oct-14 13:33N 53°31' E 009°56'0 0.0
2014-Oct-14 12:33N 53°31' E 009°56'0 0.0
2014-Oct-14 11:33N 53°31' E 009°56'1 0.8
2014-Oct-14 10:34N 53°31' E 009°56'2 1.5
2014-Oct-14 09:33N 53°32' E 009°54'0 0.0
2014-Oct-14 08:33N 53°32' E 009°54'0 0.0
2014-Oct-14 07:33N 53°32' E 009°54'0 0.0
2014-Oct-14 06:33N 53°32' E 009°54'0 0.1
2014-Oct-14 05:33N 53°32' E 009°54'0 0.2
2014-Oct-14 04:33N 53°32' E 009°54'9 9.0
2014-Oct-14 03:33N 53°34' E 009°39'1111.3
2014-Oct-14 02:33N 53°43' E 009°28'1211.6
2014-Oct-14 01:33N 53°52' E 009°16'1211.8
2014-Oct-14 00:33N 53°51' E 008°56'1110.8
2014-Oct-13 23:33N 53°56' E 008°40'1312.6
2014-Oct-13 22:33N 53°59' E 008°19'1312.7
2014-Oct-13 21:34N 54°02' E 007°58'1312.7
2014-Oct-13 20:33N 54°08' E 007°39'1211.8
2014-Oct-13 19:33N 54°18' E 007°28'1212.3
2014-Oct-13 18:33N 54°30' E 007°22'1211.9
2014-Oct-13 17:33N 54°41' E 007°16'5512.3
2014-Oct-13 13:06N 55°35' E 006°55'15213.2
2014-Oct-13 01:33N 58°04' E 006°06'1414.0
2014-Oct-13 00:33N 58°18' E 006°02'8 8.5
2014-Oct-12 23:33N 58°26' E 005°59'0 0.0
2014-Oct-12 22:33N 58°26' E 005°59'  
Track history (hours):
 
Tides and Currents Weather Stations Pressure Air Temp Water Temp Dewpoint Dewpoint Depression Visibility Wind Speed Wind Dir Waves Ship Positions

Berta

Last reported at 2014-Oct-22 22:33 UTC. Time now 2014-Oct-22 23:07 UTC.
Position N 54°20' E 007°28'.

Length 107 m; draft 6.7 m.

Type: Cargo ship. MMSI: 304586000.

Date/timePositionNaut miles runAvg speedWind from/ knotsBaromVisibWave heightAir tempDewpointWater temp
2014-Oct-22 22:33N 54°20' E 007°28'1211.8
2014-Oct-22 21:33N 54°10' E 007°38'1111.4
2014-Oct-22 20:33N 54°05' E 007°55'1511.2
2014-Oct-22 19:12N 53°60' E 008°20'813.1
2014-Oct-22 18:34N 53°58' E 008°34'1414.1
2014-Oct-22 17:34N 53°51' E 008°54'1813.6
2014-Oct-22 16:13N 53°46' E 009°24'914.3
2014-Oct-22 15:33N 53°38' E 009°32'1212.2
2014-Oct-22 14:33N 53°33' E 009°51'4 3.9
2014-Oct-22 13:33N 53°31' E 009°56'0 0.0
2014-Oct-22 12:28N 53°31' E 009°56'0 0.0
2014-Oct-22 11:28N 53°31' E 009°56'0 0.0
2014-Oct-22 10:31N 53°31' E 009°56'0 0.0
2014-Oct-22 09:28N 53°31' E 009°56'0 0.0
2014-Oct-22 08:31N 53°31' E 009°56'0 0.0
2014-Oct-22 07:31N 53°31' E 009°56'0 0.0
2014-Oct-22 06:28N 53°31' E 009°56'0 0.0
2014-Oct-22 05:28N 53°31' E 009°56'1 0.9
2014-Oct-22 04:33N 53°31' E 009°56'1 1.5
2014-Oct-22 03:33N 53°32' E 009°54'0 0.0
2014-Oct-22 02:33N 53°32' E 009°54'0 0.0
2014-Oct-22 01:33N 53°32' E 009°54'0 0.0
2014-Oct-22 00:33N 53°32' E 009°54'0 0.0
2014-Oct-21 23:33N 53°32' E 009°54'0 0.0
2014-Oct-21 22:33N 53°32' E 009°54'0 0.0
2014-Oct-21 21:33N 53°32' E 009°54'0 0.0
2014-Oct-21 20:33N 53°32' E 009°54'0 0.0
2014-Oct-21 19:33N 53°32' E 009°54'0 0.2
2014-Oct-21 18:34N 53°32' E 009°55'2 2.3
2014-Oct-21 17:33N 53°31' E 009°58'0 0.0
2014-Oct-21 16:33N 53°31' E 009°58'0 0.0
2014-Oct-21 15:33N 53°31' E 009°58'2 2.1
2014-Oct-21 14:33N 53°32' E 009°55'9 8.9
2014-Oct-21 13:33N 53°34' E 009°40'1111.1
2014-Oct-21 12:33N 53°43' E 009°29'1313.2
2014-Oct-21 11:33N 53°53' E 009°14'1515.1
2014-Oct-21 10:33N 53°50' E 008°49'1414.0
2014-Oct-21 09:33N 53°58' E 008°29'1514.6
2014-Oct-21 08:34N 53°59' E 008°05'1313.0
2014-Oct-21 07:33N 54°06' E 007°46'1212.0
2014-Oct-21 06:33N 54°14' E 007°30'1212.4
2014-Oct-21 05:33N 54°26' E 007°24'1312.7
2014-Oct-21 04:33N 54°38' E 007°18'1212.3
2014-Oct-21 03:33N 54°50' E 007°12'1212.3
2014-Oct-21 02:33N 55°01' E 007°06'1212.0
2014-Oct-21 01:33N 55°13' E 006°60'1211.9
2014-Oct-21 00:33N 55°24' E 006°54'1212.3
2014-Oct-20 23:32N 55°36' E 006°48'  
2014-Oct-15 21:12N 58°10' E 005°00'913.7
2014-Oct-15 20:33N 58°02' E 005°04'16513.7
2014-Oct-15 08:33N 55°28' E 006°50'1514.5
2014-Oct-15 07:33N 55°14' E 006°58'1514.5
2014-Oct-15 06:33N 54°60' E 007°05'1515.0
2014-Oct-15 05:33N 54°46' E 007°13'1515.4
2014-Oct-15 04:33N 54°31' E 007°21'1515.3
2014-Oct-15 03:33N 54°17' E 007°29'1414.0
2014-Oct-15 02:33N 54°07' E 007°47'1414.0
2014-Oct-15 01:33N 54°01' E 008°09'1313.0
2014-Oct-15 00:33N 53°58' E 008°30'1313.0
2014-Oct-14 23:33N 53°51' E 008°48'1616.1
2014-Oct-14 22:33N 53°53' E 009°15'1616.0
2014-Oct-14 21:33N 53°40' E 009°31'1312.7
2014-Oct-14 20:33N 53°33' E 009°49'5 4.5
2014-Oct-14 19:29N 53°31' E 009°56'0 0.0
2014-Oct-14 18:32N 53°31' E 009°56'0 0.0
2014-Oct-14 17:32N 53°31' E 009°56'0 0.0
2014-Oct-14 16:32N 53°31' E 009°56'0 0.0
2014-Oct-14 15:29N 53°31' E 009°56'0 0.0
2014-Oct-14 14:29N 53°31' E 009°56'0 0.0
2014-Oct-14 13:33N 53°31' E 009°56'0 0.0
2014-Oct-14 12:33N 53°31' E 009°56'0 0.0
2014-Oct-14 11:33N 53°31' E 009°56'1 0.8
2014-Oct-14 10:34N 53°31' E 009°56'2 1.5
2014-Oct-14 09:33N 53°32' E 009°54'0 0.0
2014-Oct-14 08:33N 53°32' E 009°54'0 0.0
2014-Oct-14 07:33N 53°32' E 009°54'0 0.0
2014-Oct-14 06:33N 53°32' E 009°54'0 0.1
2014-Oct-14 05:33N 53°32' E 009°54'0 0.2
2014-Oct-14 04:33N 53°32' E 009°54'9 9.0
2014-Oct-14 03:33N 53°34' E 009°39'1111.3
2014-Oct-14 02:33N 53°43' E 009°28'1211.6
2014-Oct-14 01:33N 53°52' E 009°16'1211.8
2014-Oct-14 00:33N 53°51' E 008°56'1110.8
2014-Oct-13 23:33N 53°56' E 008°40'1312.6
2014-Oct-13 22:33N 53°59' E 008°19'1312.7
2014-Oct-13 21:34N 54°02' E 007°58'1312.7
2014-Oct-13 20:33N 54°08' E 007°39'1211.8
2014-Oct-13 19:33N 54°18' E 007°28'1212.3
2014-Oct-13 18:33N 54°30' E 007°22'1211.9
2014-Oct-13 17:33N 54°41' E 007°16'5512.3
2014-Oct-13 13:06N 55°35' E 006°55'15213.2
2014-Oct-13 01:33N 58°04' E 006°06'1414.0
2014-Oct-13 00:33N 58°18' E 006°02'8 8.5
2014-Oct-12 23:33N 58°26' E 005°59'0 0.0
2014-Oct-12 22:33N 58°26' E 005°59'  

Dump ship's entire track history